Time;durP1;ratioP1;P1;durP2;ratioP2;P2;SDS_P1;SDS_P2;PMS_P1;PMS_P2;Temp;Humidity;BMP_temperature;BMP_pressure;BME280_temperature;BME280_humidity;BME280_pressure;Samples;Min_cycle;Max_cycle;Signal;HPM_P1;HPM_P2
2021/07/14 00:00:36;;;;;;;;;26.00;26.00;;;;;19.20;73.59;100993.09;4886814;29;45243;-68
2021/07/14 00:03:02;;;;;;;;;26.75;25.75;;;;;19.18;73.88;100985.09;4889484;28;46321;-68
2021/07/14 00:05:27;;;;;;;;;28.00;27.00;;;;;19.14;73.74;100991.66;4895288;29;45296;-69
2021/07/14 00:07:53;;;;;;;;;21.50;21.50;;;;;19.12;73.68;100988.19;4887069;29;45424;-69
2021/07/14 00:10:26;;;;;;;;;22.25;21.25;;;;;19.15;73.88;100987.13;4890220;29;45444;-68
2021/07/14 00:13:05;;;;;;;;;28.50;25.50;;;;;19.13;73.75;100989.03;4886772;29;46052;-69
2021/07/14 00:23:44;;;;;;;;;23.50;23.25;;;;;19.05;73.74;100979.59;4903948;29;45408;-68
2021/07/14 00:26:09;;;;;;;;;25.50;24.75;;;;;19.08;73.69;100989.34;4891751;29;45336;-68
2021/07/14 00:28:35;;;;;;;;;23.25;23.25;;;;;19.03;73.68;100978.81;4886810;29;45506;-69
2021/07/14 00:31:02;;;;;;;;;27.75;25.75;;;;;19.06;73.61;100988.56;4890028;29;45512;-68
2021/07/14 00:33:30;;;;;;;;;27.00;25.00;;;;;19.04;73.54;100991.41;4889644;29;45926;-68
2021/07/14 00:35:56;;;;;;;;;24.50;24.00;;;;;18.99;73.28;100989.94;4890651;29;45248;-69
2021/07/14 00:38:21;;;;;;;;;24.25;22.75;;;;;19.01;73.77;100997.00;4888588;29;45270;-68
2021/07/14 00:40:47;;;;;;;;;27.50;26.75;;;;;19.00;73.92;100983.56;4888945;29;45202;-69
2021/07/14 00:43:13;;;;;;;;;25.50;22.75;;;;;18.92;73.92;100975.94;4887231;29;46270;-69
2021/07/14 00:45:38;;;;;;;;;24.75;23.00;;;;;19.01;73.82;100990.69;4886263;29;45417;-69
2021/07/14 00:48:04;;;;;;;;;25.50;24.00;;;;;18.98;73.93;100983.66;4886533;29;45215;-68
2021/07/14 00:50:30;;;;;;;;;25.50;22.25;;;;;18.90;73.62;100979.72;4885808;29;45358;-69
2021/07/14 00:52:57;;;;;;;;;24.50;23.50;;;;;18.96;73.83;100988.31;4886111;29;46034;-69
2021/07/14 00:55:22;;;;;;;;;32.00;30.50;;;;;18.91;73.68;100987.72;4889867;29;45615;-69
2021/07/14 00:57:47;;;;;;;;;25.75;23.75;;;;;18.85;74.01;100980.00;4898036;29;45363;-69
2021/07/14 01:00:13;;;;;;;;;27.25;24.00;;;;;18.91;73.74;100995.84;4885995;29;45465;-69
2021/07/14 01:02:39;;;;;;;;;26.50;24.00;;;;;18.92;73.73;100996.72;4886429;29;45322;-69
2021/07/14 01:05:04;;;;;;;;;24.25;22.25;;;;;18.88;73.88;100999.59;4887435;29;45314;-69
2021/07/14 01:07:52;;;;;;;;;23.50;23.25;;;;;18.87;73.70;101000.56;4886266;29;45556;-69
2021/07/14 01:10:40;;;;;;;;;23.00;21.75;;;;;18.86;74.06;100996.13;4889430;29;45478;-69
2021/07/14 01:13:36;;;;;;;;;26.00;23.25;;;;;18.84;74.00;101005.28;4886288;29;45379;-69
2021/07/14 01:16:05;;;;;;;;;21.75;20.75;;;;;18.84;73.78;100999.88;4885992;29;45542;-68
2021/07/14 01:18:54;;;;;;;;;24.25;23.50;;;;;18.83;73.81;101003.56;4885693;29;45509;-68
2021/07/14 01:21:30;;;;;;;;;22.25;21.00;;;;;18.82;74.16;101001.78;4886407;29;45511;-68
2021/07/14 01:24:10;;;;;;;;;21.25;21.25;;;;;18.81;74.21;100997.34;4885573;29;45346;-68
2021/07/14 01:26:57;;;;;;;;;23.00;19.25;;;;;18.81;73.89;100995.53;4886570;29;45313;-69
2021/07/14 01:29:24;;;;;;;;;22.75;22.75;;;;;18.81;73.94;101006.34;4885580;29;45337;-69
2021/07/14 01:31:51;;;;;;;;;22.50;22.25;;;;;18.81;73.83;101003.63;4897054;29;45382;-69
2021/07/14 01:34:18;;;;;;;;;21.00;19.75;;;;;18.82;73.98;100997.25;4894655;29;45484;-69
2021/07/14 01:36:46;;;;;;;;;20.25;17.75;;;;;18.79;74.04;100997.44;4886525;29;45758;-69
2021/07/14 01:39:14;;;;;;;;;20.00;17.75;;;;;18.83;73.71;101006.28;4901352;29;45398;-69
2021/07/14 01:41:43;;;;;;;;;26.50;23.50;;;;;18.84;73.82;101006.19;4885493;29;45463;-68
2021/07/14 01:44:09;;;;;;;;;25.25;19.00;;;;;18.84;73.74;101002.59;4885269;29;46437;-69
2021/07/14 01:46:38;;;;;;;;;23.50;21.25;;;;;18.82;73.69;100999.09;4885955;29;45267;-69
2021/07/14 01:49:14;;;;;;;;;18.00;16.75;;;;;18.84;73.80;100995.38;4884995;29;45277;-69
2021/07/14 01:51:47;;;;;;;;;21.00;18.75;;;;;18.83;73.58;100990.91;4885455;29;45494;-68
2021/07/14 01:54:14;;;;;;;;;21.50;19.50;;;;;18.81;73.58;101000.94;4897809;29;45424;-69
2021/07/14 01:56:41;;;;;;;;;22.00;19.25;;;;;18.80;73.53;100990.22;4886071;29;45534;-69
2021/07/14 01:59:09;;;;;;;;;17.50;17.50;;;;;18.80;73.80;100998.31;4885212;29;45333;-68
2021/07/14 02:01:39;;;;;;;;;21.25;18.50;;;;;18.79;73.49;100993.88;4885278;29;45368;-68
2021/07/14 02:06:51;;;;;;;;;19.00;16.75;;;;;18.75;73.80;100995.91;4896555;29;45496;-68
2021/07/14 02:09:17;;;;;;;;;15.25;14.75;;;;;18.74;73.77;100982.47;4893081;29;45628;-69
2021/07/14 02:11:49;;;;;;;;;14.75;13.25;;;;;18.71;73.47;100980.84;4883966;29;45412;-69
2021/07/14 02:14:20;;;;;;;;;16.50;16.25;;;;;18.72;73.79;100979.00;4883889;29;45356;-69
2021/07/14 02:16:49;;;;;;;;;15.25;13.50;;;;;18.72;73.72;100982.56;4883999;29;45477;-69
2021/07/14 02:19:18;;;;;;;;;18.50;15.00;;;;;18.71;73.40;100980.84;4894619;29;45442;-69
2021/07/14 02:21:43;;;;;;;;;16.00;14.50;;;;;18.70;73.45;100977.25;4895445;29;45568;-69
2021/07/14 02:24:11;;;;;;;;;14.50;13.75;;;;;18.72;73.49;100977.16;4884622;29;45425;-69
2021/07/14 02:26:37;;;;;;;;;14.25;13.75;;;;;18.67;73.20;100974.72;4884108;29;45316;-69
2021/07/14 02:29:04;;;;;;;;;13.75;12.00;;;;;18.69;73.31;100971.94;4867065;29;45413;-69
2021/07/14 02:31:30;;;;;;;;;12.50;12.50;;;;;18.67;73.14;100973.88;4891252;29;45574;-69
2021/07/14 02:33:56;;;;;;;;;12.00;11.25;;;;;18.65;73.66;100978.50;4884334;29;45401;-69
2021/07/14 02:36:23;;;;;;;;;12.00;12.00;;;;;18.60;72.86;100973.38;4884472;29;45270;-69
2021/07/14 02:38:55;;;;;;;;;11.50;10.75;;;;;18.61;72.86;100977.84;4894876;29;45579;-69
2021/07/14 02:41:37;;;;;;;;;10.00;10.00;;;;;18.55;73.23;100972.81;4884937;29;45353;-69
2021/07/14 02:44:06;;;;;;;;;13.50;12.50;;;;;18.49;73.08;100976.78;4885440;29;45437;-69
2021/07/14 02:46:41;;;;;;;;;14.00;11.00;;;;;18.49;73.13;100981.28;4894347;29;45361;-69
2021/07/14 02:49:08;;;;;;;;;11.00;8.75;;;;;18.50;73.12;100983.91;4885739;29;45308;-69
2021/07/14 02:51:36;;;;;;;;;8.75;8.75;;;;;18.49;73.43;100990.28;4888453;29;45467;-69
2021/07/14 02:54:07;;;;;;;;;11.25;11.25;;;;;18.48;72.81;100987.69;4885256;29;46165;-69
2021/07/14 02:56:35;;;;;;;;;10.25;9.75;;;;;18.50;73.36;100985.75;4895901;29;45489;-69
2021/07/14 02:59:05;;;;;;;;;10.00;10.00;;;;;18.51;72.86;100992.91;4886836;29;45158;-69
2021/07/14 03:01:33;;;;;;;;;10.75;10.75;;;;;18.49;72.90;101000.22;4884412;29;45471;-68
2021/07/14 03:03:59;;;;;;;;;10.75;9.25;;;;;18.48;72.96;101006.59;4895007;29;45379;-69
2021/07/14 03:06:31;;;;;;;;;7.00;7.00;;;;;18.48;73.06;100996.66;4891990;29;45500;-68
2021/07/14 03:09:03;;;;;;;;;11.50;9.50;;;;;18.44;73.08;100986.09;4886545;29;45322;-69
2021/07/14 03:11:32;;;;;;;;;9.50;9.50;;;;;18.46;72.73;100995.00;4890491;29;45413;-69
2021/07/14 03:13:58;;;;;;;;;12.75;11.75;;;;;18.45;73.04;100999.53;4884105;29;45301;-69
2021/07/14 03:16:24;;;;;;;;;10.50;9.50;;;;;18.39;73.04;100977.41;4884256;29;45415;-69
2021/07/14 03:18:50;;;;;;;;;10.75;10.75;;;;;18.44;73.00;101000.53;4890381;29;45545;-69
2021/07/14 03:21:17;;;;;;;;;9.25;7.25;;;;;18.39;72.83;100990.94;4887264;29;45259;-69
2021/07/14 03:23:43;;;;;;;;;11.00;11.00;;;;;18.41;73.17;100999.81;4887475;29;45399;-69
2021/07/14 03:26:09;;;;;;;;;12.50;11.50;;;;;18.34;73.27;100993.91;4887413;29;45312;-69
2021/07/14 03:28:38;;;;;;;;;10.50;9.00;;;;;18.34;72.65;100993.91;4887513;29;45413;-69
2021/07/14 03:31:04;;;;;;;;;8.50;8.50;;;;;18.36;72.85;100997.41;4894034;29;45313;-69
2021/07/14 03:33:31;;;;;;;;;10.25;6.75;;;;;18.36;72.60;101000.13;4895941;29;46096;-69
2021/07/14 03:35:59;;;;;;;;;6.25;6.25;;;;;18.39;73.18;101010.72;4887010;29;45291;-69
2021/07/14 03:38:28;;;;;;;;;10.50;8.25;;;;;18.37;72.84;101011.78;4894178;29;45533;-69
2021/07/14 03:40:55;;;;;;;;;8.00;8.00;;;;;18.38;72.86;101013.53;4899492;29;45527;-68
2021/07/14 03:43:22;;;;;;;;;6.75;6.75;;;;;18.42;73.16;101020.47;4887175;29;45342;-69
2021/07/14 03:45:48;;;;;;;;;8.50;7.50;;;;;18.39;72.79;101018.81;4888037;29;45230;-69
2021/07/14 03:48:18;;;;;;;;;8.75;8.75;;;;;18.41;73.27;101016.03;4885896;29;45300;-69
2021/07/14 03:50:47;;;;;;;;;10.75;10.75;;;;;18.40;73.10;101020.56;4886772;29;45512;-69
2021/07/14 03:53:18;;;;;;;;;10.00;10.00;;;;;18.39;73.05;101016.13;4891838;29;45484;-69
2021/07/14 03:55:46;;;;;;;;;8.25;7.50;;;;;18.38;72.99;101027.91;4900752;29;45574;-69
2021/07/14 03:58:12;;;;;;;;;9.25;8.50;;;;;18.30;73.10;101016.69;4895867;29;45322;-68
2021/07/14 04:00:38;;;;;;;;;8.50;8.50;;;;;18.34;72.81;101023.63;4887027;29;45287;-69
2021/07/14 04:03:06;;;;;;;;;6.00;6.00;;;;;18.40;72.95;101035.94;4890487;29;46175;-69
2021/07/14 04:05:32;;;;;;;;;8.50;6.50;;;;;18.40;72.97;101036.78;4894858;29;45389;-69
2021/07/14 04:07:59;;;;;;;;;10.00;8.25;;;;;18.38;72.85;101038.72;4887136;29;45335;-69
2021/07/14 04:10:24;;;;;;;;;9.50;8.25;;;;;18.37;73.08;101036.97;4890292;29;45513;-69
2021/07/14 04:12:50;;;;;;;;;8.75;8.25;;;;;18.37;72.53;101028.00;4886834;29;45245;-68
2021/07/14 04:15:15;;;;;;;;;10.25;8.25;;;;;18.42;72.98;101036.69;4886678;29;45453;-69
2021/07/14 04:17:41;;;;;;;;;8.00;7.00;;;;;18.40;73.20;101044.91;4888718;29;45397;-68
2021/07/14 04:20:07;;;;;;;;;8.25;8.25;;;;;18.39;72.93;101032.34;4886406;29;45209;-69
2021/07/14 04:22:32;;;;;;;;;13.00;9.00;;;;;18.36;72.81;101028.94;4886314;29;46042;-68
2021/07/14 04:24:59;;;;;;;;;11.75;10.25;;;;;18.33;72.88;101030.88;4886500;29;45220;-69
2021/07/14 04:27:25;;;;;;;;;6.75;6.25;;;;;18.33;72.93;101035.44;4896814;29;45380;-69
2021/07/14 04:29:50;;;;;;;;;9.75;9.00;;;;;18.36;73.12;101040.66;4889426;29;46750;-69
2021/07/14 04:32:16;;;;;;;;;7.00;7.00;;;;;18.36;73.12;101035.25;4898768;29;45795;-69
2021/07/14 04:34:41;;;;;;;;;12.00;9.50;;;;;18.38;72.91;101033.31;4884765;29;45504;-69
2021/07/14 04:37:06;;;;;;;;;9.25;7.25;;;;;18.37;72.78;101028.84;4884957;29;45508;-68
2021/07/14 04:39:32;;;;;;;;;8.75;8.50;;;;;18.35;72.64;101022.69;4889095;29;45282;-69
2021/07/14 04:41:57;;;;;;;;;9.50;8.25;;;;;18.37;73.15;101030.69;4885994;29;45372;-69
2021/07/14 04:44:34;;;;;;;;;10.75;10.75;;;;;18.39;72.71;101035.03;4886554;29;45330;-68
2021/07/14 04:47:01;;;;;;;;;9.50;9.50;;;;;18.37;72.71;101025.28;4896850;29;45416;-68
2021/07/14 04:49:26;;;;;;;;;8.75;6.25;;;;;18.33;72.83;101033.59;4885772;29;45447;-69
2021/07/14 04:51:51;;;;;;;;;6.75;6.75;;;;;18.31;72.97;101027.41;4886411;29;45281;-68
2021/07/14 04:54:17;;;;;;;;;8.50;7.75;;;;;18.37;72.37;101042.38;4886322;29;45394;-68
2021/07/14 04:56:44;;;;;;;;;9.50;6.25;;;;;18.38;72.93;101046.81;4898605;29;45308;-69
2021/07/14 04:59:09;;;;;;;;;9.50;7.00;;;;;18.38;72.75;101052.22;4890219;29;45284;-69
2021/07/14 05:01:35;;;;;;;;;8.50;8.25;;;;;18.38;72.65;101051.38;4894728;29;45305;-68
2021/07/14 05:04:00;;;;;;;;;10.50;10.00;;;;;18.38;72.97;101056.78;4900631;29;45448;-69
2021/07/14 05:06:25;;;;;;;;;10.75;8.50;;;;;18.39;73.00;101063.91;4896708;29;45443;-69
2021/07/14 05:08:51;;;;;;;;;14.25;14.00;;;;;18.36;72.89;101055.97;4886490;29;45379;-69
2021/07/14 05:11:17;;;;;;;;;9.75;8.25;;;;;18.40;73.00;101060.25;4888846;29;45674;-69
2021/07/14 05:13:42;;;;;;;;;11.00;11.00;;;;;18.43;72.71;101063.63;4885891;29;45251;-69
2021/07/14 05:16:11;;;;;;;;;10.50;10.50;;;;;18.43;72.78;101063.63;4886134;29;45441;-69
2021/07/14 05:18:37;;;;;;;;;12.25;11.75;;;;;18.45;72.86;101067.09;4885625;29;45574;-69
2021/07/14 05:21:03;;;;;;;;;11.75;10.50;;;;;18.45;73.45;101066.25;4885827;29;45483;-69
2021/07/14 05:23:28;;;;;;;;;12.50;11.00;;;;;18.42;72.88;101064.59;4891054;29;45350;-69
2021/07/14 05:25:54;;;;;;;;;12.50;11.50;;;;;18.40;73.07;101066.50;4902315;29;45408;-69
2021/07/14 05:28:19;;;;;;;;;10.50;9.50;;;;;18.44;73.14;101076.19;4887974;29;45424;-68
2021/07/14 05:30:45;;;;;;;;;13.00;13.00;;;;;18.40;73.28;101065.66;4884604;29;46123;-69
2021/07/14 05:33:11;;;;;;;;;14.25;13.75;;;;;18.44;73.21;101073.50;4884311;29;45665;-69
2021/07/14 05:35:36;;;;;;;;;11.75;11.75;;;;;18.43;72.85;101079.00;4884552;29;45327;-69
2021/07/14 05:38:01;;;;;;;;;12.50;11.25;;;;;18.42;73.26;101070.00;4889166;29;45345;-69
2021/07/14 05:40:27;;;;;;;;;11.00;11.00;;;;;18.41;72.88;101067.38;4888434;29;45931;-69
2021/07/14 05:42:52;;;;;;;;;11.75;11.75;;;;;18.38;72.98;101062.19;4885567;29;45501;-68
2021/07/14 05:45:18;;;;;;;;;14.50;13.75;;;;;18.45;72.89;101075.22;4896500;29;45416;-69
2021/07/14 05:47:43;;;;;;;;;15.25;11.25;;;;;18.42;72.64;101074.53;4885448;29;45332;-69
2021/07/14 05:50:09;;;;;;;;;15.25;13.00;;;;;18.42;73.27;101070.00;4884995;29;45358;-69
2021/07/14 05:52:34;;;;;;;;;12.75;11.75;;;;;18.32;73.13;101060.69;4885406;29;45590;-69
2021/07/14 05:55:00;;;;;;;;;14.50;12.50;;;;;18.40;73.31;101077.31;4885539;29;45305;-69
2021/07/14 05:57:25;;;;;;;;;10.75;10.75;;;;;18.40;73.64;101074.63;4903204;29;45274;-69
2021/07/14 05:59:51;;;;;;;;;9.75;8.25;;;;;18.43;73.09;101085.25;4888733;29;45337;-69
2021/07/14 06:02:16;;;;;;;;;12.50;11.50;;;;;18.41;73.28;101078.19;4885112;29;45213;-69
2021/07/14 06:04:42;;;;;;;;;11.50;10.50;;;;;18.37;72.92;101082.91;4886367;29;45146;-68
2021/07/14 06:07:07;;;;;;;;;11.50;10.50;;;;;18.41;73.31;101087.19;4884961;29;51089;-69
2021/07/14 06:09:33;;;;;;;;;12.75;10.50;;;;;18.37;73.36;101077.50;4890626;29;46107;-69
2021/07/14 06:11:58;;;;;;;;;11.00;9.00;;;;;18.41;72.77;101084.50;4895067;29;45420;-69
2021/07/14 06:14:24;;;;;;;;;10.50;10.50;;;;;18.42;72.49;101088.03;4884987;29;45259;-69
2021/07/14 06:16:49;;;;;;;;;10.00;8.50;;;;;18.41;73.05;101089.88;4885167;29;45211;-69
2021/07/14 06:19:15;;;;;;;;;13.50;12.25;;;;;18.39;72.50;101094.50;4884549;29;45317;-69
2021/07/14 06:21:40;;;;;;;;;10.50;7.75;;;;;18.40;72.74;101088.13;4884880;29;45158;-68
2021/07/14 06:24:05;;;;;;;;;9.50;9.50;;;;;18.35;72.48;101087.53;4884620;29;49034;-69
2021/07/14 06:26:31;;;;;;;;;11.50;10.75;;;;;18.39;72.54;101093.63;4884884;29;45257;-69
2021/07/14 06:28:56;;;;;;;;;13.50;11.00;;;;;18.38;72.44;101091.91;4884656;29;45295;-69
2021/07/14 06:31:23;;;;;;;;;10.50;10.50;;;;;18.37;72.42;101093.72;4884852;29;45392;-69
2021/07/14 06:33:48;;;;;;;;;12.25;10.75;;;;;18.37;72.42;101088.31;4884217;29;45466;-69
2021/07/14 06:36:13;;;;;;;;;13.50;11.75;;;;;18.35;72.89;101098.34;4885027;29;45470;-69
2021/07/14 06:38:39;;;;;;;;;10.75;10.75;;;;;18.33;72.47;101103.84;4891358;29;45374;-69
2021/07/14 06:41:04;;;;;;;;;9.25;7.75;;;;;18.33;72.78;101105.69;4884433;29;52145;-69
2021/07/14 06:43:45;;;;;;;;;9.75;8.25;;;;;18.32;72.91;101104.78;4884774;29;45443;-69
2021/07/14 06:46:12;;;;;;;;;12.00;11.00;;;;;18.35;72.73;101100.19;4884659;29;45338;-69
2021/07/14 06:48:39;;;;;;;;;11.75;9.25;;;;;18.35;72.94;101111.00;4884199;29;45392;-69
2021/07/14 06:51:05;;;;;;;;;10.00;10.00;;;;;18.32;73.11;101115.59;4884363;29;45328;-69
2021/07/14 06:53:30;;;;;;;;;8.75;8.75;;;;;18.30;72.83;101098.63;4884107;29;45409;-69
2021/07/14 06:55:58;;;;;;;;;6.50;5.25;;;;;18.30;72.11;101103.16;4890956;29;45348;-69
2021/07/14 06:58:24;;;;;;;;;9.75;9.75;;;;;18.28;72.90;101105.09;4898663;29;45339;-69
2021/07/14 07:00:50;;;;;;;;;7.50;7.50;;;;;18.29;73.05;101106.81;4884697;29;45411;-69
2021/07/14 07:03:15;;;;;;;;;11.00;10.00;;;;;18.29;73.01;101102.31;4889510;29;45464;-69
2021/07/14 07:05:40;;;;;;;;;9.75;9.25;;;;;18.31;72.67;101099.50;4892279;29;54699;-69
2021/07/14 07:08:06;;;;;;;;;8.00;8.00;;;;;18.30;72.78;101098.63;4888253;29;45883;-69
2021/07/14 07:10:31;;;;;;;;;11.25;10.25;;;;;18.34;73.03;101110.13;4903133;29;45396;-69
2021/07/14 07:12:56;;;;;;;;;9.00;9.00;;;;;18.36;73.29;101107.31;4886292;29;45351;-69
2021/07/14 07:15:21;;;;;;;;;9.50;9.50;;;;;18.35;73.01;101105.59;4884353;29;45381;-69
2021/07/14 07:17:47;;;;;;;;;11.75;9.00;;;;;18.35;72.92;101114.56;4883982;29;45415;-69
2021/07/14 07:20:17;;;;;;;;;8.50;7.75;;;;;18.33;73.25;101105.69;4884124;29;45292;-69
2021/07/14 07:22:43;;;;;;;;;7.75;7.75;;;;;18.37;73.17;101115.34;4884151;29;45378;-69
2021/07/14 07:25:09;;;;;;;;;10.25;10.25;;;;;18.35;72.96;101114.56;4884371;29;45201;-69
2021/07/14 07:27:36;;;;;;;;;8.75;8.75;;;;;18.36;73.21;101107.31;4883833;29;46193;-69
2021/07/14 07:30:06;;;;;;;;;6.75;6.75;;;;;18.37;73.31;101109.06;4884226;29;45413;-69
2021/07/14 07:32:32;;;;;;;;;7.25;7.25;;;;;18.39;72.54;101115.25;4883769;29;46681;-69
2021/07/14 07:34:57;;;;;;;;;10.25;8.50;;;;;18.40;73.30;101115.16;4883896;29;45214;-69
2021/07/14 07:37:23;;;;;;;;;8.00;8.00;;;;;18.37;72.70;101114.47;4883792;29;45350;-69
2021/07/14 07:39:49;;;;;;;;;5.50;4.75;;;;;18.39;73.22;101124.22;4890972;29;45226;-69
2021/07/14 07:42:15;;;;;;;;;11.00;7.25;;;;;18.39;73.29;101126.06;4884043;29;45264;-68
2021/07/14 07:44:41;;;;;;;;;6.75;6.75;;;;;18.38;72.77;101111.69;4884041;29;45452;-68
2021/07/14 07:47:06;;;;;;;;;10.00;6.25;;;;;18.41;72.54;101105.22;4883729;29;46186;-68
2021/07/14 07:49:32;;;;;;;;;7.75;7.75;;;;;18.46;72.60;101114.81;4866642;29;45417;-68
2021/07/14 07:51:57;;;;;;;;;8.00;7.50;;;;;18.49;72.89;101111.94;4884388;29;45629;-68
2021/07/14 07:54:23;;;;;;;;;6.50;5.25;;;;;18.50;72.59;101115.50;4883925;29;45441;-68
2021/07/14 07:56:48;;;;;;;;;12.25;10.00;;;;;18.52;72.53;101114.41;4896625;29;46068;-68
2021/07/14 07:59:13;;;;;;;;;8.25;8.25;;;;;18.57;72.69;101124.09;4891352;29;45275;-68
2021/07/14 08:01:39;;;;;;;;;8.00;6.75;;;;;18.57;72.50;101121.41;4883709;29;45503;-68
2021/07/14 08:04:05;;;;;;;;;8.50;7.50;;;;;18.61;72.55;101129.25;4895119;29;45356;-68
2021/07/14 08:06:30;;;;;;;;;8.50;8.50;;;;;18.62;72.47;101133.66;4895035;29;45379;-68
2021/07/14 08:08:55;;;;;;;;;8.25;8.25;;;;;18.60;71.89;101123.94;4899718;29;45404;-68
2021/07/14 08:11:21;;;;;;;;;7.50;7.50;;;;;18.64;72.72;101134.47;4888834;29;45463;-68
2021/07/14 08:13:46;;;;;;;;;9.75;8.25;;;;;18.64;72.27;101130.88;4905842;29;45280;-68
2021/07/14 08:16:12;;;;;;;;;8.75;6.50;;;;;18.59;72.29;101124.88;4899635;29;45309;-68
2021/07/14 08:18:38;;;;;;;;;11.00;6.75;;;;;18.63;72.32;101137.25;4886600;29;45830;-68
2021/07/14 08:21:04;;;;;;;;;7.00;7.00;;;;;18.57;72.09;101126.81;4886328;29;45293;-68
2021/07/14 08:23:29;;;;;;;;;8.25;8.25;;;;;18.62;71.38;101147.19;4898597;29;45431;-68
2021/07/14 08:25:55;;;;;;;;;6.50;6.50;;;;;18.63;72.01;101145.38;4889325;29;45290;-68
2021/07/14 08:28:21;;;;;;;;;8.25;7.50;;;;;18.62;72.38;101143.63;4902814;29;45832;-68
2021/07/14 08:30:48;;;;;;;;;9.75;7.00;;;;;18.61;71.99;101149.97;4889628;29;45415;-68
2021/07/14 08:33:13;;;;;;;;;8.50;7.75;;;;;18.60;72.17;101148.25;4905218;29;45538;-68
2021/07/14 08:35:41;;;;;;;;;7.75;7.00;;;;;18.59;71.84;101149.22;4897496;29;45351;-71
2021/07/14 08:38:08;;;;;;;;;8.75;6.50;;;;;18.59;72.01;101151.91;4895545;29;45690;-71
2021/07/14 08:40:34;;;;;;;;;8.00;6.75;;;;;18.51;72.63;101137.03;4900312;29;45321;-71
2021/07/14 08:43:01;;;;;;;;;9.50;7.50;;;;;18.61;71.87;101155.38;4904334;29;45406;-70
2021/07/14 08:45:27;;;;;;;;;6.00;6.00;;;;;18.59;71.87;101146.50;4885713;29;46716;-66
2021/07/14 08:47:52;;;;;;;;;6.00;6.00;;;;;18.59;71.12;101160.03;4886175;29;45524;-69
2021/07/14 08:50:20;;;;;;;;;5.50;3.50;;;;;18.58;71.29;101148.34;4884984;29;45414;-69
2021/07/14 08:52:48;;;;;;;;;6.00;6.00;;;;;18.50;71.88;101143.38;4885620;29;45381;-68
2021/07/14 08:55:16;;;;;;;;;6.25;5.25;;;;;18.60;71.48;101153.66;4891944;29;46260;-70
2021/07/14 08:57:42;;;;;;;;;6.75;6.75;;;;;18.61;71.33;101158.97;4903625;29;45456;-71
2021/07/14 09:00:18;;;;;;;;;6.50;6.50;;;;;18.59;71.78;101157.31;4895365;29;45385;-71
2021/07/14 09:02:43;;;;;;;;;7.50;7.00;;;;;18.63;71.52;101161.59;4894279;29;45418;-71
2021/07/14 09:05:10;;;;;;;;;10.50;10.50;;;;;18.55;72.01;101144.97;4904469;29;46141;-71
2021/07/14 09:07:40;;;;;;;;;8.75;8.25;;;;;18.63;71.85;101154.34;4894406;29;45345;-72
2021/07/14 09:10:08;;;;;;;;;6.00;6.00;;;;;18.64;71.40;101168.72;4893208;29;45508;-71
2021/07/14 09:12:40;;;;;;;;;8.25;6.00;;;;;18.67;71.39;101171.25;4896963;29;45349;-71
2021/07/14 09:15:08;;;;;;;;;8.25;7.00;;;;;18.64;71.91;101171.44;4885685;29;46404;-71
2021/07/14 09:17:34;;;;;;;;;6.50;6.50;;;;;18.68;70.99;101167.59;4885389;29;45491;-71
2021/07/14 09:20:14;;;;;;;;;4.50;4.50;;;;;18.68;71.20;101167.59;4872634;29;45369;-71
2021/07/14 09:22:40;;;;;;;;;5.25;5.25;;;;;18.67;71.25;101166.72;4889441;29;45454;-71
2021/07/14 09:25:15;;;;;;;;;7.00;6.00;;;;;18.66;70.77;101174.91;4885762;29;45415;-70
2021/07/14 09:28:03;;;;;;;;;5.25;5.25;;;;;18.63;71.05;101165.16;4888974;29;45567;-70
2021/07/14 09:30:29;;;;;;;;;6.00;6.00;;;;;18.63;71.01;101170.56;4892800;29;45513;-70
2021/07/14 09:32:57;;;;;;;;;5.50;5.25;;;;;18.61;70.77;101169.81;4877556;29;45406;-70
2021/07/14 09:35:42;;;;;;;;;5.00;5.00;;;;;18.59;70.84;101169.00;4876854;29;48396;-70
2021/07/14 09:38:15;;;;;;;;;9.50;8.50;;;;;18.62;71.08;101178.78;4898990;29;45517;-70
2021/07/14 09:40:43;;;;;;;;;5.00;5.00;;;;;18.61;70.47;101175.22;4878092;29;46350;-70
2021/07/14 09:43:17;;;;;;;;;4.50;4.50;;;;;18.61;70.70;101169.81;4892425;29;45539;-70
2021/07/14 09:45:53;;;;;;;;;3.75;3.00;;;;;18.62;70.60;101174.22;4895590;29;45594;-70
2021/07/14 09:48:26;;;;;;;;;4.75;4.75;;;;;18.64;70.67;101179.53;4900798;29;45695;-70
2021/07/14 09:50:56;;;;;;;;;6.00;6.00;;;;;18.63;70.79;101180.53;4889808;29;45260;-70
2021/07/14 09:53:27;;;;;;;;;6.00;6.00;;;;;18.59;70.88;101174.41;4884050;29;45371;-70
2021/07/14 09:55:55;;;;;;;;;7.00;6.00;;;;;18.62;71.13;101178.78;4890807;29;45456;-70
2021/07/14 09:58:24;;;;;;;;;5.00;5.00;;;;;18.65;70.53;101186.72;4891719;29;45446;-69
2021/07/14 10:01:01;;;;;;;;;5.00;3.50;;;;;18.63;69.89;101178.69;4886891;29;45499;-70
2021/07/14 10:03:37;;;;;;;;;6.00;5.00;;;;;18.61;70.22;101182.44;4897745;29;45373;-69
2021/07/14 10:06:11;;;;;;;;;4.25;4.00;;;;;18.64;70.53;101188.53;4881851;29;47330;-70
2021/07/14 10:09:23;;;;;;;;;4.50;4.50;;;;;18.61;70.06;101183.31;4895667;29;45440;-69
2021/07/14 10:11:53;;;;;;;;;5.50;5.25;;;;;18.45;70.54;101158.16;4846322;29;45816;-69
2021/07/14 10:14:29;;;;;;;;;6.75;6.75;;;;;18.47;70.32;101164.31;4885501;29;45531;-69
2021/07/14 10:16:55;;;;;;;;;5.00;5.00;;;;;18.42;70.71;101147.50;4902457;29;45400;-69
2021/07/14 10:19:20;;;;;;;;;5.75;5.25;;;;;18.45;70.54;101155.44;4902220;29;45359;-69
2021/07/14 10:21:48;;;;;;;;;6.25;5.00;;;;;18.50;70.55;101153.34;4902450;29;45655;-69
2021/07/14 10:24:19;;;;;;;;;5.50;5.50;;;;;18.55;70.33;101174.69;4902433;29;45533;-68
2021/07/14 10:26:47;;;;;;;;;4.50;4.50;;;;;18.62;70.40;101174.22;4903054;28;45639;-68
2021/07/14 10:29:14;;;;;;;;;7.00;4.75;;;;;18.59;70.12;101166.28;4901570;29;45308;-69
2021/07/14 10:31:40;;;;;;;;;4.25;4.25;;;;;18.56;69.36;101155.69;4900011;29;45567;-70
2021/07/14 10:34:08;;;;;;;;;4.50;4.50;;;;;18.58;69.63;101153.75;4885628;29;45587;-70
2021/07/14 10:36:36;;;;;;;;;7.75;5.75;;;;;18.64;69.41;101160.63;4872485;29;47102;-70
2021/07/14 10:39:06;;;;;;;;;5.00;5.00;;;;;18.56;69.80;101152.97;4895897;29;45461;-70
2021/07/14 10:41:32;;;;;;;;;6.25;6.25;;;;;18.68;70.02;101181.97;4902980;29;45419;-70
2021/07/14 10:43:59;;;;;;;;;3.00;3.00;;;;;18.82;69.29;101197.38;4903227;29;45363;-70
2021/07/14 10:46:28;;;;;;;;;7.00;7.00;;;;;18.69;70.04;101178.31;4883985;29;46177;-69
2021/07/14 10:48:58;;;;;;;;;6.00;5.50;;;;;18.68;69.61;101175.72;4891588;29;45380;-70
2021/07/14 10:51:25;;;;;;;;;5.75;5.75;;;;;18.85;69.88;101190.97;4891926;29;45321;-70
2021/07/14 10:53:58;;;;;;;;;5.25;5.25;;;;;18.71;69.39;101167.41;4900280;29;45588;-70
2021/07/14 10:56:27;;;;;;;;;5.75;5.75;;;;;18.88;69.39;101197.06;4902840;29;46127;-70
2021/07/14 10:58:54;;;;;;;;;6.75;6.75;;;;;18.79;69.30;101175.06;4887546;29;45451;-70
2021/07/14 11:01:40;;;;;;;;;9.00;6.00;;;;;18.80;69.25;101166.84;4884341;29;45394;-70
2021/07/14 11:04:11;;;;;;;;;6.25;6.00;;;;;19.02;69.78;101203.47;4895526;29;45591;-70
2021/07/14 11:06:59;;;;;;;;;7.25;7.25;;;;;19.01;69.73;101194.50;4890462;29;46259;-70
2021/07/14 11:09:33;;;;;;;;;4.50;4.50;;;;;19.15;69.76;101206.31;4887724;29;45408;-70
2021/07/14 11:11:58;;;;;;;;;6.00;6.00;;;;;18.98;69.03;101177.56;4884031;29;45273;-70
2021/07/14 11:14:36;;;;;;;;;7.75;7.00;;;;;18.98;69.54;101173.03;4884029;29;45539;-70
2021/07/14 11:17:02;;;;;;;;;9.00;7.25;;;;;19.12;69.54;101191.09;4883827;29;46577;-70
2021/07/14 11:20:05;;;;;;;;;9.25;7.00;;;;;19.32;69.44;101216.94;4883759;29;45428;-70
2021/07/14 11:22:40;;;;;;;;;8.00;8.00;;;;;19.35;69.28;101203.22;4879785;29;45542;-70
2021/07/14 11:25:08;;;;;;;;;8.00;8.00;;;;;19.19;69.71;101184.34;4883294;29;45810;-70
2021/07/14 11:27:36;;;;;;;;;8.25;8.25;;;;;19.43;69.02;101210.88;4882601;29;46470;-70
2021/07/14 11:30:01;;;;;;;;;5.25;5.25;;;;;19.47;69.67;101206.16;4885338;29;45796;-70
2021/07/14 11:32:33;;;;;;;;;8.00;7.25;;;;;19.52;69.44;101212.16;4890082;29;45533;-70